Aérodrome :
LOGIN :

S'inscrire | Disclaimer

   EN    FR    IT 

 










Légende :    VFR   VFR Marginal   IFR   IFR Intensif   IFR Très Intensif
Visi : 
Plafond : 
>= 8 km
>= 3000ft
5 à 8 km
1000 à 3000 ft
1500m à 5 km
500 à 1000 ft
800 à 1500m
200 à 500 ft
< 800m
< 200 ft
Symboles :   Orages  Brouillard  Fortes neiges  Fortes précipitations  Vent > 20 kt
SIGMETs :   Divers  Orages  Givrage  Turbulence  Onde Orograph.  Cendres Volcan.






- Altitude de l'aérodrome : 183 ft
- Code IATA : HAJ


EDDV - Hanover/Langenhagen Int.

DERNIER METAR :
  • 192320Z 21005KT CAVOK 03/M01 Q1019

METARs EXPIRÉS :
  • 192250Z 23008KT CAVOK 03/M01 Q1019
  • 192220Z 24008KT CAVOK 04/M01 Q1019
  • 192150Z 24009KT CAVOK 04/M00 Q1019
  • 192120Z 24009KT 9999 FEW038 04/M00 Q1019
  • 192050Z 24007KT 9999 FEW038 04/M00 Q1019 NOSIG

TAF TAF EDDV
Valide du 20 à 00h jusqu'au 21 à 00h UTC


192300Z 2000/2024 22008KT 9999 BKN030
PROB30
TEMPO 2003/2012 4500 RADZ BKN012
BECMG 2006/2009 20014KT
TEMPO 2010/2018 23015G25KT
BECMG 2022/2024 28015G30KT



MET'MAP, la Météo Aéronautique d'un coup d'oeil ! - Copyright ORBIFLY Décembre 2007 - Disclaimer

ORBIFLY MET'MAP TEAM :

Programmation & Développement : Alexandra Zaïnal
Sur une idée originale de : Baudouin d'Aumeries
Assistance à la programmation : Marc-Olivier Méhu
Soutien technique & logistique : Manuel Goepfert

Contact : metmap@orbifly.com




SOURCES & CREDITS :

   NOAA